createdAt,value
2022-08-09T00:00:29.434Z,26.00
2022-08-09T00:03:00.313Z,25.80
2022-08-09T00:06:17.559Z,25.70
2022-08-09T00:08:32.669Z,25.60
2022-08-09T00:11:05.926Z,25.30
2022-08-09T00:13:52.698Z,25.10
2022-08-09T00:16:26.277Z,24.90
2022-08-09T00:19:12.802Z,24.70
2022-08-09T00:21:56.616Z,24.40
2022-08-09T00:24:29.814Z,24.10
2022-08-09T00:27:03.509Z,23.90
2022-08-09T00:30:10.335Z,23.80
2022-08-09T00:32:25.216Z,23.70
2022-08-09T00:34:59.521Z,23.60
2022-08-09T00:37:32.551Z,23.50
2022-08-09T00:40:12.038Z,23.40
2022-08-09T00:44:13.563Z,23.50
2022-08-09T00:45:39.548Z,23.70
2022-08-09T00:48:22.051Z,23.60
2022-08-09T00:50:53.041Z,23.60
2022-08-09T00:53:24.258Z,23.50
2022-08-09T00:56:04.842Z,23.40
2022-08-09T00:58:42.649Z,23.50
2022-08-09T01:01:44.442Z,23.60
2022-08-09T01:04:27.539Z,23.60
2022-08-09T01:07:37.590Z,23.70
2022-08-09T01:10:40.090Z,23.90
2022-08-09T01:13:59.122Z,24.00
2022-08-09T01:16:38.907Z,24.10
2022-08-09T01:20:01.809Z,24.20
2022-08-09T01:24:01.153Z,24.30
2022-08-09T01:26:25.368Z,24.30
2022-08-09T01:28:56.771Z,24.10
2022-08-09T01:32:30.906Z,24.10
2022-08-09T01:34:27.406Z,24.10
2022-08-09T01:37:02.520Z,23.80
2022-08-09T01:39:39.050Z,23.90
2022-08-09T01:42:12.838Z,23.90
2022-08-09T01:44:43.507Z,24.00
2022-08-09T01:47:17.449Z,24.00
2022-08-09T01:49:48.741Z,24.10
2022-08-09T01:52:27.153Z,24.10
2022-08-09T01:55:00.834Z,24.00
2022-08-09T01:57:44.323Z,24.00
2022-08-09T02:00:34.459Z,24.00
2022-08-09T02:03:11.370Z,24.00
2022-08-09T02:06:03.453Z,23.80
2022-08-09T02:08:58.731Z,23.70
2022-08-09T02:11:42.126Z,23.50
2022-08-09T02:14:15.112Z,23.30
2022-08-09T02:17:14.755Z,23.20
2022-08-09T02:19:48.931Z,23.10
2022-08-09T02:22:48.377Z,23.00
2022-08-09T02:25:24.763Z,23.00
2022-08-09T02:28:05.829Z,23.00
2022-08-09T02:31:07.038Z,23.00
2022-08-09T02:34:06.788Z,23.00
2022-08-09T02:36:42.273Z,23.00
2022-08-09T02:39:34.016Z,22.90
2022-08-09T02:42:19.193Z,22.90
2022-08-09T02:45:06.736Z,22.80
2022-08-09T02:47:57.999Z,22.70
2022-08-09T02:50:44.240Z,22.60
2022-08-09T02:53:31.439Z,22.50
2022-08-09T02:56:08.230Z,22.50
2022-08-09T02:58:38.028Z,22.50
2022-08-09T03:01:21.597Z,22.50
2022-08-09T03:04:18.313Z,22.50
2022-08-09T03:06:50.729Z,22.50
2022-08-09T03:09:23.575Z,22.50
2022-08-09T03:12:06.054Z,22.50
2022-08-09T03:14:36.921Z,22.50
2022-08-09T03:17:10.898Z,22.50
2022-08-09T03:19:58.205Z,22.40
2022-08-09T03:22:42.102Z,22.30
2022-08-09T03:25:26.888Z,22.40
2022-08-09T03:28:11.438Z,22.50
2022-08-09T03:30:44.388Z,22.60
2022-08-09T03:33:19.437Z,22.50
2022-08-09T03:36:13.510Z,22.50
2022-08-09T03:38:43.476Z,22.50
2022-08-09T03:41:18.369Z,22.40
2022-08-09T03:44:03.030Z,22.40
2022-08-09T03:46:37.232Z,22.40
2022-08-09T03:49:10.693Z,22.50
2022-08-09T03:51:58.261Z,22.40
2022-08-09T03:54:38.488Z,22.40
2022-08-09T03:57:20.084Z,22.30
2022-08-09T03:59:54.436Z,22.20
2022-08-09T04:02:28.365Z,22.10
2022-08-09T04:05:06.562Z,22.00
2022-08-09T04:07:56.439Z,22.00
2022-08-09T04:10:30.503Z,22.00
2022-08-09T04:13:12.361Z,22.20
2022-08-09T04:16:19.802Z,22.30
2022-08-09T04:18:39.916Z,22.30
2022-08-09T04:21:14.136Z,22.20
2022-08-09T04:23:54.163Z,22.10
2022-08-09T04:26:35.213Z,22.10
2022-08-09T04:29:15.655Z,22.10
2022-08-09T04:31:47.302Z,22.00
2022-08-09T04:34:18.810Z,22.00
2022-08-09T04:36:59.385Z,21.90
2022-08-09T04:39:32.384Z,21.90
2022-08-09T04:42:12.171Z,21.80
2022-08-09T04:44:49.099Z,21.90
2022-08-09T04:47:19.223Z,22.00
2022-08-09T04:49:54.751Z,22.00
2022-08-09T04:52:45.294Z,21.90
2022-08-09T04:55:14.430Z,21.90
2022-08-09T04:57:59.069Z,21.80
2022-08-09T05:00:36.084Z,21.70
2022-08-09T05:03:12.867Z,21.70
2022-08-09T05:06:06.414Z,21.70
2022-08-09T05:08:43.997Z,21.80
2022-08-09T05:11:15.927Z,21.80
2022-08-09T05:13:47.257Z,21.80
2022-08-09T05:16:19.843Z,21.80
2022-08-09T05:18:59.169Z,21.70
2022-08-09T05:21:29.811Z,21.70
2022-08-09T05:24:04.013Z,21.70
2022-08-09T05:26:45.970Z,21.70
2022-08-09T05:29:24.529Z,21.80
2022-08-09T05:32:05.808Z,21.70
2022-08-09T05:34:35.478Z,21.80
2022-08-09T05:37:11.342Z,22.00
2022-08-09T05:39:45.011Z,22.10
2022-08-09T05:42:17.509Z,22.10
2022-08-09T05:44:55.134Z,22.20
2022-08-09T05:47:30.343Z,22.10
2022-08-09T05:50:30.772Z,22.00
2022-08-09T05:52:54.140Z,22.00
2022-08-09T05:55:24.799Z,21.90
2022-08-09T05:57:58.320Z,22.00
2022-08-09T06:00:32.973Z,22.10
2022-08-09T06:03:03.342Z,22.20
2022-08-09T06:05:50.570Z,22.10
2022-08-09T06:08:28.778Z,22.10
2022-08-09T06:10:58.274Z,22.10
2022-08-09T06:13:34.087Z,22.10
2022-08-09T06:16:06.943Z,22.00
2022-08-09T06:18:38.514Z,22.00
2022-08-09T06:21:11.130Z,21.90
2022-08-09T06:23:57.627Z,21.80
2022-08-09T06:26:34.187Z,21.80
2022-08-09T06:29:05.524Z,22.00
2022-08-09T06:31:39.954Z,22.20
2022-08-09T06:34:29.910Z,22.30
2022-08-09T06:37:02.830Z,22.30
2022-08-09T06:39:39.658Z,22.10
2022-08-09T06:42:24.840Z,21.90
2022-08-09T06:45:20.429Z,21.80
2022-08-09T06:47:57.897Z,21.90
2022-08-09T06:50:32.926Z,22.10
2022-08-09T06:53:02.159Z,22.20
2022-08-09T06:55:35.001Z,22.20
2022-08-09T06:58:05.539Z,22.10
2022-08-09T07:00:56.138Z,22.00
2022-08-09T07:03:29.750Z,21.90
2022-08-09T07:06:05.547Z,22.00
2022-08-09T07:08:37.355Z,22.10
2022-08-09T07:11:12.738Z,22.10
2022-08-09T07:14:04.133Z,22.10
2022-08-09T07:16:41.821Z,22.20
2022-08-09T07:19:18.606Z,22.10
2022-08-09T07:21:57.654Z,22.00
2022-08-09T07:24:32.710Z,22.10
2022-08-09T07:27:27.360Z,22.10
2022-08-09T07:30:02.194Z,22.30
2022-08-09T07:32:34.865Z,22.30
2022-08-09T07:35:10.485Z,22.40
2022-08-09T07:37:48.079Z,22.40
2022-08-09T07:40:26.735Z,22.40
2022-08-09T07:43:02.082Z,22.30
2022-08-09T07:45:38.148Z,22.40
2022-08-09T07:48:25.481Z,22.40
2022-08-09T07:52:03.311Z,22.40
2022-08-09T07:54:05.383Z,22.60
2022-08-09T07:56:48.697Z,22.70
2022-08-09T07:59:34.683Z,22.70
2022-08-09T08:02:19.207Z,22.70
2022-08-09T08:04:53.677Z,22.90
2022-08-09T08:08:42.869Z,23.10
2022-08-09T08:10:13.897Z,23.10
2022-08-09T08:12:50.530Z,23.20
2022-08-09T08:15:23.079Z,23.20
2022-08-09T08:17:58.166Z,23.30
2022-08-09T08:20:33.716Z,23.50
2022-08-09T08:25:54.155Z,23.70
2022-08-09T08:28:40.675Z,23.50
2022-08-09T08:31:14.575Z,23.30
2022-08-09T08:33:52.964Z,23.40
2022-08-09T08:36:30.703Z,23.40
2022-08-09T08:39:00.469Z,23.50
2022-08-09T08:41:50.750Z,23.60
2022-08-09T08:44:26.864Z,23.70
2022-08-09T08:47:05.043Z,23.50
2022-08-09T08:49:49.350Z,23.50
2022-08-09T08:52:57.532Z,23.60
2022-08-09T08:55:23.241Z,23.70
2022-08-09T08:58:01.279Z,23.70
2022-08-09T09:00:34.957Z,23.70
2022-08-09T09:03:11.092Z,23.70
2022-08-09T09:05:59.178Z,23.70
2022-08-09T09:08:42.453Z,23.80
2022-08-09T09:11:17.598Z,23.80
2022-08-09T09:14:01.497Z,23.80
2022-08-09T09:16:35.990Z,23.90
2022-08-09T09:19:40.668Z,23.90
2022-08-09T09:22:26.731Z,23.80
2022-08-09T09:26:04.125Z,23.90
2022-08-09T09:28:06.380Z,24.00
2022-08-09T09:30:55.441Z,24.20
2022-08-09T09:33:44.306Z,24.30
2022-08-09T09:36:20.822Z,24.50
2022-08-09T09:38:59.811Z,24.40
2022-08-09T09:41:49.216Z,24.50
2022-08-09T09:44:33.855Z,24.70
2022-08-09T09:47:11.824Z,25.00
2022-08-09T09:49:56.695Z,24.90
2022-08-09T09:52:53.591Z,25.00
2022-08-09T09:55:33.245Z,25.10
2022-08-09T09:58:19.490Z,25.20
2022-08-09T10:01:00.089Z,24.90
2022-08-09T10:03:44.310Z,24.80
2022-08-09T10:06:13.820Z,24.90
2022-08-09T10:08:57.071Z,25.10
2022-08-09T10:12:12.143Z,25.20
2022-08-09T10:14:34.024Z,25.40
2022-08-09T10:17:40.304Z,25.60
2022-08-09T10:20:35.840Z,25.50
2022-08-09T10:23:23.844Z,25.50
2022-08-09T10:26:08.203Z,25.70
2022-08-09T10:28:48.720Z,25.90
2022-08-09T10:34:32.638Z,26.20
2022-08-09T10:37:03.124Z,26.30
2022-08-09T10:39:40.626Z,26.40
2022-08-09T10:42:42.560Z,26.40
2022-08-09T10:45:18.339Z,26.50
2022-08-09T10:48:34.087Z,26.50
2022-08-09T10:51:41.281Z,26.60
2022-08-09T10:54:14.363Z,26.60
2022-08-09T10:56:43.908Z,26.60
2022-08-09T10:59:31.347Z,26.60
2022-08-09T11:03:27.953Z,26.70
2022-08-09T11:05:24.870Z,26.80
2022-08-09T11:08:47.513Z,26.90
2022-08-09T11:11:24.263Z,26.80
2022-08-09T11:14:38.204Z,26.70
2022-08-09T11:17:45.646Z,26.90
2022-08-09T11:20:22.676Z,27.00
2022-08-09T11:22:58.704Z,27.00
2022-08-09T11:25:44.789Z,27.10
2022-08-09T11:28:55.890Z,27.30
2022-08-09T11:31:53.047Z,27.30
2022-08-09T11:34:51.530Z,27.40
2022-08-09T11:37:40.841Z,27.40
2022-08-09T11:40:42.617Z,27.50
2022-08-09T11:43:39.806Z,27.50
2022-08-09T11:46:12.646Z,27.70
2022-08-09T11:49:00.648Z,27.90
2022-08-09T11:52:56.959Z,28.00
2022-08-09T11:54:30.001Z,28.20
2022-08-09T11:58:00.135Z,28.40
2022-08-09T12:00:33.277Z,28.30
2022-08-09T12:03:50.330Z,28.30
2022-08-09T12:05:59.749Z,28.20
2022-08-09T12:08:30.168Z,28.10
2022-08-09T12:11:00.766Z,28.00
2022-08-09T12:14:08.218Z,28.00
2022-08-09T12:16:42.878Z,28.20
2022-08-09T12:19:15.623Z,28.30
2022-08-09T12:21:51.974Z,28.50
2022-08-09T12:24:26.850Z,28.70
2022-08-09T12:29:12.072Z,28.80
2022-08-09T12:30:01.516Z,29.00
2022-08-09T12:32:48.386Z,29.20
2022-08-09T12:35:21.729Z,29.30
2022-08-09T12:37:54.909Z,29.30
2022-08-09T12:40:56.046Z,29.40
2022-08-09T12:44:06.554Z,29.30
2022-08-09T12:46:22.262Z,29.30
2022-08-09T12:48:56.861Z,29.30
2022-08-09T12:51:30.443Z,29.40
2022-08-09T12:56:54.566Z,30.10
2022-08-09T12:59:39.810Z,30.50
2022-08-09T13:02:16.905Z,30.60
2022-08-09T13:05:02.364Z,31.20
2022-08-09T13:07:51.624Z,31.20
2022-08-09T13:10:34.810Z,31.40
2022-08-09T13:13:08.917Z,31.50
2022-08-09T13:16:01.576Z,31.70
2022-08-09T13:18:43.092Z,32.50
2022-08-09T13:22:36.326Z,33.30
2022-08-09T13:24:53.245Z,33.80
2022-08-09T13:27:48.825Z,34.80
2022-08-09T13:31:10.912Z,34.50
2022-08-09T13:33:52.234Z,34.70
2022-08-09T13:36:39.507Z,34.40
2022-08-09T13:41:50.638Z,34.20
2022-08-09T13:42:13.564Z,34.90
2022-08-09T13:44:46.201Z,35.00
2022-08-09T13:47:31.153Z,34.80
2022-08-09T13:50:30.987Z,34.60
2022-08-09T13:53:00.581Z,35.10
2022-08-09T13:55:32.934Z,35.20
2022-08-09T13:58:05.078Z,34.50
2022-08-09T14:00:49.944Z,34.30
2022-08-09T14:04:03.610Z,33.40
2022-08-09T14:06:25.661Z,33.30
2022-08-09T14:08:58.239Z,33.40
2022-08-09T14:14:24.857Z,32.60
2022-08-09T14:17:02.481Z,32.50
2022-08-09T14:19:35.169Z,32.30
2022-08-09T14:22:05.472Z,32.20
2022-08-09T14:24:33.963Z,32.00
2022-08-09T14:27:19.705Z,32.30
2022-08-09T14:30:34.700Z,32.90
2022-08-09T14:32:38.835Z,32.90
2022-08-09T14:35:10.079Z,33.20
2022-08-09T14:38:01.468Z,32.90
2022-08-09T14:41:01.186Z,32.70
2022-08-09T14:43:23.066Z,32.10
2022-08-09T14:46:54.918Z,31.90
2022-08-09T14:48:40.379Z,31.70
2022-08-09T14:51:13.082Z,32.00
2022-08-09T14:53:46.833Z,32.10
2022-08-09T14:56:26.878Z,32.40
2022-08-09T14:58:57.879Z,32.90
2022-08-09T15:01:25.939Z,32.90
2022-08-09T15:03:57.915Z,32.90
2022-08-09T15:06:29.042Z,32.90
2022-08-09T15:09:01.935Z,32.50
2022-08-09T15:11:35.037Z,32.20
2022-08-09T15:14:12.970Z,32.10
2022-08-09T15:16:43.376Z,32.10
2022-08-09T15:19:26.053Z,32.40
2022-08-09T15:22:02.163Z,32.20
2022-08-09T15:24:34.556Z,32.30
2022-08-09T15:27:05.583Z,32.20
2022-08-09T15:30:58.870Z,32.40
2022-08-09T15:32:31.179Z,31.80
2022-08-09T15:35:01.456Z,31.00
2022-08-09T15:37:56.869Z,30.60
2022-08-09T15:40:35.921Z,30.50
2022-08-09T15:43:06.042Z,30.60
2022-08-09T15:46:07.662Z,30.60
2022-08-09T15:48:36.102Z,30.80
2022-08-09T15:51:30.406Z,30.90
2022-08-09T15:54:07.401Z,31.00
2022-08-09T15:56:50.270Z,30.90
2022-08-09T15:59:24.309Z,29.90
2022-08-09T16:02:09.335Z,29.40
2022-08-09T16:04:42.842Z,29.10
2022-08-09T16:07:11.700Z,29.00
2022-08-09T16:09:51.212Z,28.90
2022-08-09T16:12:26.995Z,28.90
2022-08-09T16:15:04.285Z,28.90
2022-08-09T16:17:53.691Z,28.50
2022-08-09T16:20:30.075Z,28.30
2022-08-09T16:23:01.350Z,28.10
2022-08-09T16:25:40.246Z,28.00
2022-08-09T16:28:13.696Z,27.80
2022-08-09T16:30:58.900Z,27.90
2022-08-09T16:33:34.945Z,27.80
2022-08-09T16:36:13.068Z,27.80
2022-08-09T16:38:51.453Z,27.60
2022-08-09T16:41:39.266Z,27.50
2022-08-09T16:44:16.834Z,27.60
2022-08-09T16:46:55.182Z,27.70
2022-08-09T16:50:31.986Z,27.60
2022-08-09T16:52:25.466Z,27.70
2022-08-09T16:54:59.269Z,27.50
2022-08-09T16:58:07.968Z,27.50
2022-08-09T17:00:21.789Z,27.20
2022-08-09T17:02:54.719Z,26.90
2022-08-09T17:06:08.008Z,26.70
2022-08-09T17:08:44.044Z,26.50
2022-08-09T17:11:08.141Z,26.40
2022-08-09T17:13:45.055Z,26.30
2022-08-09T17:16:13.199Z,26.20
2022-08-09T17:18:41.126Z,26.20
2022-08-09T17:21:12.853Z,26.20
2022-08-09T17:24:27.833Z,26.20
2022-08-09T17:26:38.258Z,26.20
2022-08-09T17:29:11.641Z,26.20
2022-08-09T17:31:51.001Z,26.00
2022-08-09T17:35:04.096Z,26.00
2022-08-09T17:37:19.467Z,25.80
2022-08-09T17:39:53.601Z,25.70
2022-08-09T17:42:41.273Z,25.60
2022-08-09T17:45:26.866Z,25.50
2022-08-09T17:48:02.426Z,25.50
2022-08-09T17:50:36.426Z,25.30
2022-08-09T17:53:19.649Z,25.30
2022-08-09T17:55:57.650Z,25.30
2022-08-09T17:58:30.957Z,25.20
2022-08-09T18:01:04.287Z,25.20
2022-08-09T18:03:35.656Z,25.20
2022-08-09T18:06:04.257Z,25.10
2022-08-09T18:08:43.921Z,25.00
2022-08-09T18:11:16.357Z,24.90
2022-08-09T18:13:56.534Z,24.80
2022-08-09T18:16:32.123Z,24.80
2022-08-09T18:20:54.308Z,24.70
2022-08-09T18:21:57.370Z,24.70
2022-08-09T18:24:28.943Z,24.70
2022-08-09T18:27:05.943Z,24.70
2022-08-09T18:30:41.930Z,24.60
2022-08-09T18:32:26.879Z,24.60
2022-08-09T18:34:57.211Z,24.50
2022-08-09T18:37:47.590Z,24.50
2022-08-09T18:40:18.559Z,24.40
2022-08-09T18:42:55.150Z,24.20
2022-08-09T18:46:51.018Z,24.30
2022-08-09T18:48:17.877Z,24.20
2022-08-09T18:50:46.164Z,24.20
2022-08-09T18:53:16.430Z,24.10
2022-08-09T18:55:56.200Z,24.00
2022-08-09T18:58:38.932Z,24.00
2022-08-09T19:01:07.040Z,23.90
2022-08-09T19:04:00.914Z,23.90
2022-08-09T19:06:28.366Z,23.90
2022-08-09T19:09:03.224Z,23.90
2022-08-09T19:11:38.618Z,23.90
2022-08-09T19:14:16.043Z,23.80
2022-08-09T19:16:54.573Z,23.80
2022-08-09T19:19:28.182Z,23.70
2022-08-09T19:22:06.799Z,23.60
2022-08-09T19:25:09.542Z,23.60
2022-08-09T19:27:38.144Z,23.50
2022-08-09T19:30:22.344Z,23.50
2022-08-09T19:33:01.726Z,23.40
2022-08-09T19:35:57.216Z,23.40
2022-08-09T19:38:24.445Z,23.40
2022-08-09T19:40:56.077Z,23.30
2022-08-09T19:44:01.219Z,23.30
2022-08-09T19:46:16.199Z,23.20
2022-08-09T19:49:02.552Z,23.10
2022-08-09T19:51:40.202Z,23.00
2022-08-09T19:54:22.357Z,23.00
2022-08-09T19:56:58.216Z,23.00
2022-08-09T19:59:59.555Z,23.00
2022-08-09T20:04:07.637Z,22.90
2022-08-09T20:05:17.016Z,22.90
2022-08-09T20:07:58.762Z,22.80
2022-08-09T20:10:33.965Z,22.80
2022-08-09T20:13:05.925Z,22.80
2022-08-09T20:16:38.242Z,22.70
2022-08-09T20:18:29.013Z,22.70
2022-08-09T20:21:00.337Z,22.70
2022-08-09T20:23:39.205Z,22.70
2022-08-09T20:26:13.265Z,22.70
2022-08-09T20:28:49.767Z,22.70
2022-08-09T20:31:17.932Z,22.60
2022-08-09T20:33:58.230Z,22.60
2022-08-09T20:36:32.567Z,22.60
2022-08-09T20:39:28.952Z,22.60
2022-08-09T20:42:01.101Z,22.60
2022-08-09T20:44:35.822Z,22.60
2022-08-09T20:47:23.849Z,22.60
2022-08-09T20:50:02.673Z,22.70
2022-08-09T20:52:34.004Z,22.70
2022-08-09T20:55:12.562Z,22.70
2022-08-09T20:58:07.732Z,22.60
2022-08-09T21:00:37.103Z,22.60
2022-08-09T21:03:16.730Z,22.60
2022-08-09T21:05:58.576Z,22.50
2022-08-09T21:08:36.699Z,22.50
2022-08-09T21:14:00.346Z,22.30
2022-08-09T21:16:30.544Z,22.40
2022-08-09T21:20:02.464Z,22.30
2022-08-09T21:21:57.231Z,22.30
2022-08-09T21:24:33.762Z,22.30
2022-08-09T21:27:10.232Z,22.30
2022-08-09T21:29:55.211Z,22.30
2022-08-09T21:32:33.467Z,22.30
2022-08-09T21:35:10.783Z,22.20
2022-08-09T21:37:56.874Z,22.20
2022-08-09T21:40:33.740Z,22.20
2022-08-09T21:43:02.954Z,22.20
2022-08-09T21:45:39.164Z,22.20
2022-08-09T21:48:13.525Z,22.20
2022-08-09T21:50:49.717Z,22.20
2022-08-09T21:53:40.045Z,22.20
2022-08-09T21:56:15.123Z,22.30
2022-08-09T21:59:01.701Z,22.20
2022-08-09T22:01:44.823Z,22.20
2022-08-09T22:04:55.102Z,22.10
2022-08-09T22:07:23.268Z,22.10
2022-08-09T22:09:53.957Z,22.20
2022-08-09T22:12:24.771Z,22.10
2022-08-09T22:15:00.944Z,22.10
2022-08-09T22:17:36.747Z,22.10
2022-08-09T22:20:17.099Z,22.10
2022-08-09T22:22:55.738Z,22.10
2022-08-09T22:26:07.195Z,22.10
2022-08-09T22:28:29.726Z,22.10
2022-08-09T22:31:04.805Z,22.10
2022-08-09T22:33:48.580Z,22.10
2022-08-09T22:36:19.812Z,22.10
2022-08-09T22:38:49.453Z,22.10
2022-08-09T22:41:16.741Z,22.10
2022-08-09T22:44:01.471Z,22.10
2022-08-09T22:48:14.402Z,22.00
2022-08-09T22:49:25.741Z,22.00
2022-08-09T22:52:00.681Z,22.00
2022-08-09T22:54:30.564Z,21.90
2022-08-09T22:57:01.288Z,21.80
2022-08-09T22:59:56.072Z,21.70
2022-08-09T23:02:22.827Z,21.70
2022-08-09T23:04:55.317Z,21.70
2022-08-09T23:08:22.916Z,21.70
2022-08-09T23:10:43.089Z,21.70
2022-08-09T23:13:16.099Z,21.60
2022-08-09T23:16:03.096Z,21.70
2022-08-09T23:18:33.811Z,21.60
2022-08-09T23:21:01.602Z,21.60
2022-08-09T23:23:32.833Z,21.50
2022-08-09T23:26:02.553Z,21.50
2022-08-09T23:28:32.433Z,21.50
2022-08-09T23:31:03.608Z,21.50
2022-08-09T23:33:35.301Z,21.50
2022-08-09T23:36:07.641Z,21.40
2022-08-09T23:38:48.868Z,21.50
2022-08-09T23:41:28.681Z,21.40
2022-08-09T23:44:09.551Z,21.40
2022-08-09T23:46:37.016Z,21.40
2022-08-09T23:49:05.027Z,21.40
2022-08-09T23:51:34.321Z,21.40
2022-08-09T23:54:06.295Z,21.40
2022-08-09T23:56:52.270Z,21.30
2022-08-09T23:59:26.312Z,21.30
